createdAt,value
2023-01-26T00:01:24.120Z,139.45
2023-01-26T00:03:51.496Z,144.95
2023-01-26T00:06:19.714Z,175.48
2023-01-26T00:08:48.680Z,148.65
2023-01-26T00:11:18.062Z,125.13
2023-01-26T00:13:45.066Z,185.57
2023-01-26T00:16:14.333Z,134.55
2023-01-26T00:18:41.885Z,126.40
2023-01-26T00:21:12.686Z,138.77
2023-01-26T00:23:39.543Z,136.63
2023-01-26T00:26:07.682Z,184.07
2023-01-26T00:28:34.460Z,247.70
2023-01-26T00:31:06.515Z,185.43
2023-01-26T00:33:33.682Z,147.25
2023-01-26T00:36:00.533Z,185.55
2023-01-26T00:38:27.529Z,206.10
2023-01-26T00:40:54.475Z,198.50
2023-01-26T00:43:21.507Z,283.63
2023-01-26T00:45:48.388Z,154.15
2023-01-26T00:48:15.424Z,127.75
2023-01-26T00:50:42.199Z,137.30
2023-01-26T00:55:36.824Z,108.13
2023-01-26T00:58:05.827Z,139.68
2023-01-26T01:00:33.738Z,100.85
2023-01-26T01:03:00.978Z,102.28
2023-01-26T01:05:29.664Z,125.50
2023-01-26T01:07:56.879Z,109.22
2023-01-26T01:10:24.749Z,112.45
2023-01-26T01:12:52.877Z,124.03
2023-01-26T01:15:19.600Z,138.40
2023-01-26T01:17:46.371Z,115.28
2023-01-26T01:20:13.431Z,106.82
2023-01-26T01:22:41.580Z,153.02
2023-01-26T01:25:08.785Z,129.15
2023-01-26T01:27:35.517Z,137.88
2023-01-26T01:30:07.552Z,130.77
2023-01-26T01:32:38.698Z,156.23
2023-01-26T01:35:05.956Z,202.65
2023-01-26T01:37:33.642Z,154.32
2023-01-26T01:40:00.506Z,107.28
2023-01-26T01:42:28.156Z,155.07
2023-01-26T01:45:25.987Z,226.38
2023-01-26T01:48:02.626Z,261.55
2023-01-26T01:50:39.319Z,120.32
2023-01-26T01:53:10.544Z,134.90
2023-01-26T01:55:37.670Z,194.20
2023-01-26T01:58:05.947Z,134.73
2023-01-26T02:00:32.912Z,132.07
2023-01-26T02:03:19.415Z,163.57
2023-01-26T02:05:55.757Z,134.32
2023-01-26T02:08:27.634Z,125.45
2023-01-26T02:10:58.458Z,125.05
2023-01-26T02:13:27.645Z,120.13
2023-01-26T02:15:54.873Z,139.73
2023-01-26T02:18:21.774Z,134.88
2023-01-26T02:20:59.710Z,118.18
2023-01-26T02:23:35.592Z,123.97
2023-01-26T02:26:09.327Z,119.22
2023-01-26T02:28:36.151Z,124.35
2023-01-26T02:31:03.783Z,120.90
2023-01-26T02:33:32.358Z,123.72
2023-01-26T02:36:03.370Z,146.43
2023-01-26T02:38:39.395Z,120.43
2023-01-26T02:41:10.589Z,113.18
2023-01-26T02:43:37.580Z,127.82
2023-01-26T02:46:05.045Z,135.38
2023-01-26T02:48:54.307Z,107.75
2023-01-26T02:51:21.795Z,122.78
2023-01-26T02:56:15.532Z,132.18
2023-01-26T02:58:42.325Z,99.60
2023-01-26T03:01:10.022Z,110.03
2023-01-26T03:03:46.681Z,115.55
2023-01-26T03:06:15.300Z,129.50
2023-01-26T03:08:42.418Z,188.05
2023-01-26T03:11:09.541Z,147.43
2023-01-26T03:13:37.146Z,132.27
2023-01-26T03:16:07.598Z,331.77
2023-01-26T03:18:53.944Z,210.50
2023-01-26T03:21:42.261Z,110.15
2023-01-26T03:24:31.164Z,139.88
2023-01-26T03:27:18.941Z,115.70
2023-01-26T03:29:45.845Z,149.88
2023-01-26T03:32:13.379Z,146.80
2023-01-26T03:34:42.278Z,153.27
2023-01-26T03:37:09.331Z,129.65
2023-01-26T03:40:11.996Z,111.95
2023-01-26T03:42:58.855Z,103.75
2023-01-26T03:45:46.034Z,104.43
2023-01-26T03:48:31.986Z,111.78
2023-01-26T03:51:18.573Z,122.15
2023-01-26T03:54:03.957Z,104.88
2023-01-26T03:56:34.057Z,98.45
2023-01-26T03:59:15.414Z,106.40
2023-01-26T04:02:04.777Z,102.95
2023-01-26T04:04:51.338Z,105.05
2023-01-26T04:07:38.922Z,97.90
2023-01-26T04:10:06.605Z,159.80
2023-01-26T04:12:33.730Z,86.53
2023-01-26T04:15:33.895Z,107.50
2023-01-26T04:18:25.413Z,128.05
2023-01-26T04:21:10.730Z,128.07
2023-01-26T04:23:40.386Z,142.90
2023-01-26T04:26:07.274Z,106.90
2023-01-26T04:28:36.013Z,101.22
2023-01-26T04:31:04.703Z,90.88
2023-01-26T04:33:34.865Z,91.80
2023-01-26T04:36:06.645Z,123.00
2023-01-26T04:38:35.710Z,127.35
2023-01-26T04:41:02.746Z,138.13
2023-01-26T04:43:32.350Z,140.13
2023-01-26T04:46:00.343Z,109.82
2023-01-26T04:48:29.512Z,139.15
2023-01-26T04:50:57.963Z,139.73
2023-01-26T04:53:25.137Z,145.27
2023-01-26T04:55:52.113Z,126.35
2023-01-26T04:58:19.345Z,139.93
2023-01-26T05:00:57.727Z,121.75
2023-01-26T05:03:26.614Z,113.47
2023-01-26T05:05:55.079Z,96.05
2023-01-26T05:08:24.402Z,106.90
2023-01-26T05:10:52.423Z,106.93
2023-01-26T05:13:23.193Z,103.25
2023-01-26T05:16:03.975Z,93.82
2023-01-26T05:18:59.916Z,168.65
2023-01-26T05:21:46.862Z,102.05
2023-01-26T05:24:13.846Z,99.25
2023-01-26T05:27:18.976Z,118.70
2023-01-26T05:32:17.047Z,122.97
2023-01-26T05:37:13.651Z,104.50
2023-01-26T05:39:44.034Z,112.43
2023-01-26T05:42:12.696Z,112.35
2023-01-26T05:45:02.759Z,109.07
2023-01-26T05:47:30.453Z,86.80
2023-01-26T05:49:57.715Z,107.30
2023-01-26T05:52:28.432Z,237.80
2023-01-26T05:54:55.164Z,97.75
2023-01-26T05:57:23.066Z,119.25
2023-01-26T05:59:54.490Z,128.13
2023-01-26T06:02:22.117Z,114.90
2023-01-26T06:07:16.183Z,138.43
2023-01-26T06:09:48.147Z,97.15
2023-01-26T06:12:22.066Z,106.93
2023-01-26T06:15:02.396Z,101.10
2023-01-26T06:17:37.451Z,118.95
2023-01-26T06:20:08.168Z,100.80
2023-01-26T06:22:36.187Z,119.78
2023-01-26T06:25:03.116Z,123.28
2023-01-26T06:27:30.147Z,111.95
2023-01-26T06:29:59.279Z,107.82
2023-01-26T06:32:28.037Z,102.22
2023-01-26T06:34:55.438Z,110.38
2023-01-26T06:37:24.356Z,98.05
2023-01-26T06:39:53.955Z,109.63
2023-01-26T06:42:20.709Z,106.65
2023-01-26T06:44:47.567Z,111.30
2023-01-26T06:47:14.989Z,117.25
2023-01-26T06:49:42.359Z,106.28
2023-01-26T06:52:28.285Z,108.05
2023-01-26T06:58:02.592Z,98.28
2023-01-26T07:00:57.048Z,114.90
2023-01-26T07:03:33.227Z,101.65
2023-01-26T07:06:00.028Z,119.15
2023-01-26T07:08:26.807Z,126.05
2023-01-26T07:10:53.541Z,133.35
2023-01-26T07:13:20.328Z,129.75
2023-01-26T07:15:48.054Z,131.52
2023-01-26T07:18:15.354Z,102.18
2023-01-26T07:20:42.178Z,104.97
2023-01-26T07:23:08.871Z,114.22
2023-01-26T07:25:35.835Z,111.05
2023-01-26T07:28:02.611Z,114.35
2023-01-26T07:30:29.320Z,130.15
2023-01-26T07:33:00.370Z,124.72
2023-01-26T07:35:27.197Z,123.65
2023-01-26T07:37:55.447Z,97.55
2023-01-26T07:40:22.192Z,107.97
2023-01-26T07:42:49.110Z,133.65
2023-01-26T07:45:20.202Z,125.40
2023-01-26T07:47:47.391Z,105.72
2023-01-26T07:52:41.773Z,98.18
2023-01-26T07:55:08.642Z,105.60
2023-01-26T07:57:35.331Z,104.93
2023-01-26T08:00:02.293Z,113.50
2023-01-26T08:02:38.520Z,91.20
2023-01-26T08:05:06.556Z,109.57
2023-01-26T08:07:33.327Z,97.97
2023-01-26T08:10:00.096Z,108.72
2023-01-26T08:12:27.327Z,108.68
2023-01-26T08:17:20.634Z,96.32
2023-01-26T08:19:47.562Z,99.30
2023-01-26T08:22:14.534Z,106.07
2023-01-26T08:24:41.221Z,101.20
2023-01-26T08:27:07.949Z,99.85
2023-01-26T08:29:34.722Z,89.30
2023-01-26T08:32:01.450Z,83.40
2023-01-26T08:34:28.193Z,91.07
2023-01-26T08:36:54.909Z,88.05
2023-01-26T08:39:21.626Z,83.80
2023-01-26T08:41:48.736Z,88.85
2023-01-26T08:44:15.423Z,95.50
2023-01-26T08:46:44.138Z,79.93
2023-01-26T08:49:10.960Z,81.65
2023-01-26T08:51:37.723Z,87.78
2023-01-26T08:54:10.639Z,68.18
2023-01-26T08:56:37.506Z,88.53
2023-01-26T08:59:04.173Z,76.32
2023-01-26T09:01:31.089Z,79.38
2023-01-26T09:03:58.425Z,64.68
2023-01-26T09:08:52.219Z,73.63
2023-01-26T09:11:19.009Z,78.15
2023-01-26T09:13:56.296Z,79.78
2023-01-26T09:16:24.395Z,70.28
2023-01-26T09:18:52.956Z,68.45
2023-01-26T09:21:20.775Z,69.15
2023-01-26T09:23:47.565Z,83.05
2023-01-26T09:26:14.374Z,61.33
2023-01-26T09:28:41.146Z,63.08
2023-01-26T09:31:10.902Z,57.65
2023-01-26T09:33:38.017Z,63.42
2023-01-26T09:36:06.973Z,62.35
2023-01-26T09:38:33.829Z,58.97
2023-01-26T09:41:22.605Z,63.90
2023-01-26T09:43:59.679Z,57.25
2023-01-26T09:46:40.615Z,56.67
2023-01-26T09:49:13.667Z,55.40
2023-01-26T09:52:05.226Z,58.55
2023-01-26T09:54:44.837Z,54.05
2023-01-26T09:57:25.130Z,45.30
2023-01-26T10:00:02.525Z,58.17
2023-01-26T10:02:47.140Z,53.58
2023-01-26T10:05:35.879Z,52.92
2023-01-26T10:08:11.672Z,52.95
2023-01-26T10:10:44.563Z,55.25
2023-01-26T10:13:14.992Z,51.67
2023-01-26T10:15:44.817Z,57.88
2023-01-26T10:18:32.392Z,50.10
2023-01-26T10:21:02.782Z,53.10
2023-01-26T10:23:34.159Z,56.97
2023-01-26T10:26:13.406Z,54.90
2023-01-26T10:28:42.381Z,46.40
2023-01-26T10:31:29.657Z,47.83
2023-01-26T10:34:00.961Z,50.97
2023-01-26T10:36:31.890Z,54.13
2023-01-26T10:39:05.778Z,46.83
2023-01-26T10:41:33.518Z,42.40
2023-01-26T10:44:20.729Z,52.17
2023-01-26T10:47:03.736Z,51.33
2023-01-26T10:49:30.530Z,45.20
2023-01-26T10:52:14.505Z,52.63
2023-01-26T10:54:43.900Z,46.45
2023-01-26T10:57:28.201Z,49.55
2023-01-26T11:00:08.698Z,48.10
2023-01-26T11:02:36.736Z,43.67
2023-01-26T11:05:09.869Z,40.78
2023-01-26T11:07:41.531Z,41.85
2023-01-26T11:10:30.302Z,43.65
2023-01-26T11:13:12.633Z,41.22
2023-01-26T11:15:41.512Z,43.20
2023-01-26T11:18:46.737Z,40.38
2023-01-26T11:21:17.333Z,39.58
2023-01-26T11:24:03.396Z,40.72
2023-01-26T11:26:57.241Z,40.25
2023-01-26T11:29:24.021Z,43.67
2023-01-26T11:32:02.790Z,41.40
2023-01-26T11:34:38.900Z,37.35
2023-01-26T11:37:44.103Z,38.03
2023-01-26T11:40:32.580Z,34.65
2023-01-26T11:45:41.945Z,36.17
2023-01-26T11:48:24.529Z,41.92
2023-01-26T11:51:20.348Z,40.00
2023-01-26T11:54:18.270Z,32.63
2023-01-26T11:56:50.132Z,32.88
2023-01-26T11:59:22.723Z,32.88
2023-01-26T12:02:20.257Z,31.23
2023-01-26T12:04:48.123Z,34.97
2023-01-26T12:07:51.182Z,32.20
2023-01-26T12:10:36.687Z,35.03
2023-01-26T12:13:26.611Z,29.52
2023-01-26T12:16:01.705Z,31.73
2023-01-26T12:19:11.154Z,31.00
2023-01-26T12:21:43.418Z,34.53
2023-01-26T12:24:43.461Z,31.05
2023-01-26T12:27:10.698Z,31.58
2023-01-26T12:30:10.884Z,28.95
2023-01-26T12:32:37.660Z,34.83
2023-01-26T12:35:04.752Z,32.10
2023-01-26T12:38:12.231Z,24.85
2023-01-26T12:41:25.432Z,32.45
2023-01-26T12:44:12.955Z,27.90
2023-01-26T12:46:46.739Z,28.97
2023-01-26T12:49:52.250Z,31.55
2023-01-26T12:52:35.798Z,28.20
2023-01-26T12:55:26.819Z,30.83
2023-01-26T12:58:13.669Z,26.83
2023-01-26T13:00:40.975Z,30.20
2023-01-26T13:03:25.745Z,23.65
2023-01-26T13:06:03.122Z,26.48
2023-01-26T13:08:33.123Z,29.15
2023-01-26T13:11:02.001Z,28.15
2023-01-26T13:13:30.461Z,26.77
2023-01-26T13:16:15.574Z,31.15
2023-01-26T13:18:50.786Z,27.90
2023-01-26T13:21:49.773Z,28.33
2023-01-26T13:26:47.011Z,30.10
2023-01-26T13:29:25.635Z,27.70
2023-01-26T13:31:54.967Z,25.65
2023-01-26T13:34:29.372Z,29.50
2023-01-26T13:37:04.437Z,24.33
2023-01-26T13:39:40.451Z,28.08
2023-01-26T13:42:22.747Z,28.23
2023-01-26T13:44:59.366Z,31.63
2023-01-26T13:47:37.759Z,32.67
2023-01-26T13:50:23.196Z,29.65
2023-01-26T13:52:50.130Z,26.65
2023-01-26T13:55:42.243Z,26.08
2023-01-26T13:58:17.447Z,30.38
2023-01-26T14:01:11.448Z,29.20
2023-01-26T14:03:38.238Z,29.50
2023-01-26T14:06:11.294Z,23.65
2023-01-26T14:08:39.568Z,26.75
2023-01-26T14:11:18.809Z,28.48
2023-01-26T14:13:50.390Z,25.20
2023-01-26T14:16:26.498Z,31.90
2023-01-26T14:19:22.751Z,29.00
2023-01-26T14:21:54.369Z,28.38
2023-01-26T14:24:30.021Z,28.55
2023-01-26T14:26:57.390Z,25.58
2023-01-26T14:31:54.708Z,28.35
2023-01-26T14:34:25.399Z,27.67
2023-01-26T14:37:14.774Z,25.45
2023-01-26T14:39:47.909Z,24.38
2023-01-26T14:42:17.155Z,27.67
2023-01-26T14:44:44.057Z,28.15
2023-01-26T14:47:17.641Z,31.42
2023-01-26T14:50:00.144Z,26.65
2023-01-26T14:52:33.970Z,25.77
2023-01-26T14:55:18.926Z,27.40
2023-01-26T14:57:45.744Z,38.40
2023-01-26T15:00:39.359Z,26.67
2023-01-26T15:03:13.814Z,30.38
2023-01-26T15:05:42.282Z,29.17
2023-01-26T15:08:21.752Z,30.77
2023-01-26T15:11:18.286Z,37.15
2023-01-26T15:13:47.582Z,28.75
2023-01-26T15:16:17.639Z,30.35
2023-01-26T15:18:45.169Z,28.33
2023-01-26T15:21:22.292Z,27.30
2023-01-26T15:23:54.830Z,33.20
2023-01-26T15:26:27.422Z,30.00
2023-01-26T15:28:56.704Z,28.45
2023-01-26T15:31:31.103Z,31.52
2023-01-26T15:34:04.294Z,29.80
2023-01-26T15:36:46.477Z,28.52
2023-01-26T15:39:15.986Z,33.80
2023-01-26T15:41:45.599Z,31.88
2023-01-26T15:44:17.378Z,28.25
2023-01-26T15:46:44.944Z,31.67
2023-01-26T15:49:12.927Z,32.53
2023-01-26T15:51:39.938Z,32.63
2023-01-26T15:54:07.526Z,34.15
2023-01-26T15:56:34.247Z,35.53
2023-01-26T15:59:00.997Z,32.40
2023-01-26T16:01:27.702Z,33.80
2023-01-26T16:03:54.502Z,29.80
2023-01-26T16:06:26.292Z,34.05
2023-01-26T16:08:54.112Z,32.40
2023-01-26T16:11:21.940Z,33.40
2023-01-26T16:14:02.450Z,32.10
2023-01-26T16:16:30.438Z,34.35
2023-01-26T16:18:57.352Z,32.72
2023-01-26T16:21:31.375Z,46.85
2023-01-26T16:23:58.321Z,64.35
2023-01-26T16:26:26.259Z,45.92
2023-01-26T16:28:53.076Z,39.58
2023-01-26T16:31:23.266Z,35.17
2023-01-26T16:33:50.998Z,146.23
2023-01-26T16:36:21.143Z,399.08
2023-01-26T16:38:48.697Z,112.32
2023-01-26T16:41:27.317Z,47.17
2023-01-26T16:43:55.669Z,47.83
2023-01-26T16:46:22.534Z,287.17
2023-01-26T16:48:49.298Z,153.43
2023-01-26T16:51:20.244Z,81.93
2023-01-26T16:53:47.674Z,43.90
2023-01-26T16:56:16.070Z,45.00
2023-01-26T16:58:43.181Z,64.97
2023-01-26T17:03:42.991Z,49.05
2023-01-26T17:06:10.278Z,47.78
2023-01-26T17:08:37.056Z,47.17
2023-01-26T17:11:03.975Z,45.50
2023-01-26T17:13:31.566Z,52.90
2023-01-26T17:15:58.686Z,52.30
2023-01-26T17:18:25.637Z,47.20
2023-01-26T17:20:52.398Z,50.33
2023-01-26T17:23:19.590Z,69.47
2023-01-26T17:28:12.928Z,95.82
2023-01-26T17:30:39.655Z,70.28
2023-01-26T17:33:06.406Z,64.00
2023-01-26T17:35:33.114Z,50.72
2023-01-26T17:37:59.891Z,53.78
2023-01-26T17:40:26.610Z,50.53
2023-01-26T17:42:53.315Z,63.53
2023-01-26T17:45:20.100Z,58.75
2023-01-26T17:47:47.273Z,50.33
2023-01-26T17:50:14.209Z,53.13
2023-01-26T17:52:40.988Z,53.08
2023-01-26T17:55:07.977Z,61.10
2023-01-26T17:57:34.785Z,59.75
2023-01-26T18:00:01.679Z,61.58
2023-01-26T18:02:37.319Z,70.10
2023-01-26T18:05:04.394Z,57.63
2023-01-26T18:07:31.087Z,61.65
2023-01-26T18:09:57.817Z,54.17
2023-01-26T18:12:24.587Z,46.53
2023-01-26T18:14:53.082Z,55.40
2023-01-26T18:17:20.969Z,64.72
2023-01-26T18:19:47.755Z,61.20
2023-01-26T18:22:14.453Z,60.00
2023-01-26T18:24:41.159Z,56.33
2023-01-26T18:27:07.936Z,58.50
2023-01-26T18:29:34.616Z,58.03
2023-01-26T18:32:01.505Z,64.45
2023-01-26T18:34:28.262Z,68.22
2023-01-26T18:36:55.527Z,72.03
2023-01-26T18:41:48.911Z,97.03
2023-01-26T18:44:15.839Z,69.15
2023-01-26T18:46:42.595Z,69.85
2023-01-26T18:49:16.469Z,82.38
2023-01-26T18:51:48.298Z,46.58
2023-01-26T18:54:15.950Z,56.15
2023-01-26T18:56:42.942Z,55.47
2023-01-26T18:59:10.704Z,54.40
2023-01-26T19:01:38.253Z,56.25
2023-01-26T19:04:07.240Z,55.95
2023-01-26T19:06:35.300Z,64.40
2023-01-26T19:09:05.635Z,56.60
2023-01-26T19:11:37.608Z,52.03
2023-01-26T19:14:06.340Z,55.47
2023-01-26T19:16:33.287Z,59.20
2023-01-26T19:19:01.165Z,57.13
2023-01-26T19:21:28.693Z,65.70
2023-01-26T19:24:05.608Z,60.05
2023-01-26T19:26:33.358Z,60.13
2023-01-26T19:29:00.238Z,57.22
2023-01-26T19:31:27.708Z,63.60
2023-01-26T19:34:00.162Z,66.18
2023-01-26T19:36:29.222Z,52.88
2023-01-26T19:38:55.982Z,57.03
2023-01-26T19:41:23.971Z,56.10
2023-01-26T19:43:51.658Z,56.92
2023-01-26T19:46:20.128Z,57.85
2023-01-26T19:48:47.075Z,51.40
2023-01-26T19:51:19.837Z,50.72
2023-01-26T19:53:49.577Z,59.33
2023-01-26T19:56:22.222Z,51.45
2023-01-26T19:58:51.166Z,47.95
2023-01-26T20:01:18.289Z,48.72
2023-01-26T20:03:58.798Z,54.42
2023-01-26T20:06:28.166Z,60.35
2023-01-26T20:08:55.551Z,54.53
2023-01-26T20:11:25.172Z,51.85
2023-01-26T20:13:59.804Z,53.97
2023-01-26T20:16:29.860Z,45.67
2023-01-26T20:18:58.745Z,46.90
2023-01-26T20:21:26.289Z,44.75
2023-01-26T20:23:55.253Z,47.45
2023-01-26T20:26:24.537Z,44.13
2023-01-26T20:28:51.872Z,42.38
2023-01-26T20:31:21.889Z,45.92
2023-01-26T20:33:50.514Z,47.60
2023-01-26T20:36:20.531Z,48.45
2023-01-26T20:38:48.520Z,41.38
2023-01-26T20:41:19.278Z,42.97
2023-01-26T20:43:59.731Z,52.28
2023-01-26T20:46:35.467Z,47.05
2023-01-26T20:49:03.427Z,46.55
2023-01-26T20:51:34.022Z,45.88
2023-01-26T20:54:02.385Z,48.80
2023-01-26T20:56:30.816Z,43.22
2023-01-26T20:58:57.781Z,45.65
2023-01-26T21:01:25.609Z,41.63
2023-01-26T21:03:52.603Z,50.63
2023-01-26T21:06:20.967Z,52.00
2023-01-26T21:08:49.789Z,65.22
2023-01-26T21:11:17.257Z,46.72
2023-01-26T21:13:45.411Z,47.15
2023-01-26T21:16:17.064Z,45.67
2023-01-26T21:18:45.428Z,44.45
2023-01-26T21:21:14.943Z,43.83
2023-01-26T21:23:41.671Z,42.75
2023-01-26T21:26:13.093Z,44.95
2023-01-26T21:28:40.054Z,45.88
2023-01-26T21:31:11.001Z,46.90
2023-01-26T21:33:40.207Z,49.45
2023-01-26T21:36:08.310Z,48.50
2023-01-26T21:38:40.539Z,53.03
2023-01-26T21:41:28.753Z,59.40
2023-01-26T21:44:00.070Z,48.53
2023-01-26T21:46:27.781Z,53.17
2023-01-26T21:48:54.480Z,51.88
2023-01-26T21:51:40.149Z,53.92
2023-01-26T21:54:07.351Z,56.08
2023-01-26T21:59:07.621Z,50.72
2023-01-26T22:01:38.142Z,49.97
2023-01-26T22:04:10.091Z,53.67
2023-01-26T22:06:37.434Z,58.40
2023-01-26T22:09:09.200Z,53.47
2023-01-26T22:11:36.470Z,50.92
2023-01-26T22:16:29.982Z,57.65
2023-01-26T22:18:56.859Z,53.55
2023-01-26T22:21:24.193Z,55.17
2023-01-26T22:26:22.302Z,64.95
2023-01-26T22:28:53.617Z,50.50
2023-01-26T22:31:23.037Z,53.55
2023-01-26T22:33:50.431Z,54.22
2023-01-26T22:36:18.623Z,59.83
2023-01-26T22:38:46.487Z,60.25
2023-01-26T22:41:19.733Z,60.10
2023-01-26T22:43:51.066Z,58.05
2023-01-26T22:46:20.510Z,57.22
2023-01-26T22:48:47.488Z,55.45
2023-01-26T22:51:22.656Z,59.33
2023-01-26T22:53:51.907Z,66.65
2023-01-26T22:56:19.989Z,72.32
2023-01-26T22:58:57.990Z,69.30
2023-01-26T23:01:27.553Z,62.83
2023-01-26T23:03:55.667Z,71.10
2023-01-26T23:06:22.678Z,71.63
2023-01-26T23:08:49.810Z,73.60
2023-01-26T23:11:21.140Z,68.25
2023-01-26T23:13:49.672Z,61.92
2023-01-26T23:16:16.693Z,60.42
2023-01-26T23:21:11.120Z,52.90
2023-01-26T23:23:39.841Z,56.38
2023-01-26T23:26:07.515Z,54.90
2023-01-26T23:28:37.131Z,68.63
2023-01-26T23:31:04.307Z,58.47
2023-01-26T23:35:59.130Z,60.13
2023-01-26T23:38:28.073Z,57.78
2023-01-26T23:40:55.020Z,66.40
2023-01-26T23:43:22.662Z,57.65
2023-01-26T23:45:50.649Z,60.05
2023-01-26T23:48:18.161Z,53.83
2023-01-26T23:50:45.299Z,53.70
2023-01-26T23:55:43.120Z,51.20
2023-01-26T23:58:11.356Z,50.38
